MiSS Christi — WBM6513 — position and weather

sailwx.info

Track history (hours):
 
Tides and Currents Weather Stations Pressure Air Temp Water Temp Dewpoint Dewpoint Depression Visibility Wind Speed Wind Dir Waves Ship Positions

MiSS Christi

Owner: MISS CHRISTI INC, WEST HILLS, CA. More information available from US FCC via Universal Licensing System and Coast Guard Vessel Documentation Center.

Last reported at 2017-Mar-18 00:11 UTC. Time now 2017-Mar-23 18:13 UTC.
Position N 33°44' W 118°16'.

Length 15 m; draft 1.5 m.

Type: Passenger vessel. MMSI: 367311590.

Date/timePositionNaut miles runAvg speedWind from/ knotsBaromVisibWave heightAir tempDewpointWater temp
2017-Mar-18 00:11N 33°44' W 118°16'5 7.9
2017-Mar-17 23:33N 33°39' W 118°18'1615.9
2017-Mar-17 22:33N 33°27' W 118°29'0 0.0
2017-Mar-17 21:26N 33°27' W 118°29'0 0.0
2017-Mar-17 17:33N 33°27' W 118°29'6 5.7
2017-Mar-17 16:32N 33°32' W 118°25'1312.2
2017-Mar-17 15:29N 33°42' W 118°16'2 2.5
2017-Mar-17 14:31N 33°44' W 118°16'0 0.0
2017-Mar-17 00:08N 33°44' W 118°16'610.8
2017-Mar-16 23:34N 33°38' W 118°19'1514.5
2017-Mar-16 22:34N 33°27' W 118°29'0 0.0
2017-Mar-16 21:04N 33°27' W 118°29'0 0.0
2017-Mar-16 19:27N 33°27' W 118°29'0 0.0
2017-Mar-16 18:33N 33°27' W 118°29'0 0.0
2017-Mar-16 17:34N 33°27' W 118°29'0 0.0
2017-Mar-16 16:33N 33°27' W 118°29'4 4.4
2017-Mar-16 15:33N 33°30' W 118°26'1615.8
2017-Mar-16 14:33N 33°44' W 118°16'0 0.0
2017-Mar-15 22:12N 33°44' W 118°16'0 0.0
2017-Mar-15 21:32N 33°44' W 118°16'0 0.0
2017-Mar-15 20:33N 33°44' W 118°16'4 3.7
2017-Mar-15 19:32N 33°40' W 118°17'1515.4
2017-Mar-15 18:33N 33°29' W 118°28'6 1.9
2017-Mar-15 15:33N 33°33' W 118°23'1312.8
2017-Mar-15 14:34N 33°44' W 118°16'0 0.0
2017-Mar-15 00:04N 33°44' W 118°16'5 9.5
2017-Mar-14 23:33N 33°40' W 118°19'1515.3
2017-Mar-14 22:33N 33°27' W 118°29'0 0.3
2017-Mar-14 21:25N 33°27' W 118°29'0 0.0
2017-Mar-14 20:33N 33°27' W 118°29'0 0.0
2017-Mar-14 19:33N 33°27' W 118°29'0 0.0
2017-Mar-14 18:31N 33°27' W 118°29'0 0.0
2017-Mar-14 17:32N 33°27' W 118°29'2 1.7
2017-Mar-14 16:33N 33°28' W 118°28'1312.4
2017-Mar-14 15:32N 33°38' W 118°18'7 6.5
2017-Mar-14 14:31N 33°44' W 118°16'0 0.0
2017-Mar-14 00:29N 33°44' W 118°16'9 9.9
2017-Mar-13 23:33N 33°35' W 118°15'14 2.2
2017-Mar-13 17:16N 33°27' W 118°29'912.1
2017-Mar-13 16:33N 33°27' W 118°19'1110.8
2017-Mar-13 15:33N 33°38' W 118°16'6 0.3
2017-Mar-12 19:33N 33°44' W 118°16'1414.1
2017-Mar-12 18:33N 33°31' W 118°24'6 5.2
2017-Mar-12 17:24N 33°27' W 118°29'1315.4
2017-Mar-12 16:33N 33°37' W 118°20'8 7.1
2017-Mar-12 15:29N 33°44' W 118°16'0 0.0
2017-Mar-10 23:21N 33°44' W 118°16'1214.7
2017-Mar-10 22:33N 33°34' W 118°22'9 1.6
2017-Mar-10 17:16N 33°27' W 118°29'1318.8
2017-Mar-10 16:34N 33°38' W 118°21'7 7.0
2017-Mar-10 15:33N 33°44' W 118°16'1 0.1
2017-Mar-10 00:33N 33°43' W 118°16'1919.4
2017-Mar-09 23:33N 33°27' W 118°29'5 0.7
2017-Mar-09 16:34N 33°31' W 118°25'1515.2
2017-Mar-09 15:33N 33°44' W 118°16'3 0.2
2017-Mar-09 00:33N 33°41' W 118°16'16 2.0
2017-Mar-08 16:34N 33°29' W 118°27'1817.7
2017-Mar-08 15:33N 33°44' W 118°16'  
Track history (hours):
 
Tides and Currents Weather Stations Pressure Air Temp Water Temp Dewpoint Dewpoint Depression Visibility Wind Speed Wind Dir Waves Ship Positions

MiSS Christi

Owner: MISS CHRISTI INC, WEST HILLS, CA. More information available from US FCC via Universal Licensing System and Coast Guard Vessel Documentation Center.

Last reported at 2017-Mar-18 00:11 UTC. Time now 2017-Mar-23 18:13 UTC.
Position N 33°44' W 118°16'.

Length 15 m; draft 1.5 m.

Type: Passenger vessel. MMSI: 367311590.

Date/timePositionNaut miles runAvg speedWind from/ knotsBaromVisibWave heightAir tempDewpointWater temp
2017-Mar-18 00:11N 33°44' W 118°16'5 7.9
2017-Mar-17 23:33N 33°39' W 118°18'1615.9
2017-Mar-17 22:33N 33°27' W 118°29'0 0.0
2017-Mar-17 21:26N 33°27' W 118°29'0 0.0
2017-Mar-17 17:33N 33°27' W 118°29'6 5.7
2017-Mar-17 16:32N 33°32' W 118°25'1312.2
2017-Mar-17 15:29N 33°42' W 118°16'2 2.5
2017-Mar-17 14:31N 33°44' W 118°16'0 0.0
2017-Mar-17 00:08N 33°44' W 118°16'610.8
2017-Mar-16 23:34N 33°38' W 118°19'1514.5
2017-Mar-16 22:34N 33°27' W 118°29'0 0.0
2017-Mar-16 21:04N 33°27' W 118°29'0 0.0
2017-Mar-16 19:27N 33°27' W 118°29'0 0.0
2017-Mar-16 18:33N 33°27' W 118°29'0 0.0
2017-Mar-16 17:34N 33°27' W 118°29'0 0.0
2017-Mar-16 16:33N 33°27' W 118°29'4 4.4
2017-Mar-16 15:33N 33°30' W 118°26'1615.8
2017-Mar-16 14:33N 33°44' W 118°16'0 0.0
2017-Mar-15 22:12N 33°44' W 118°16'0 0.0
2017-Mar-15 21:32N 33°44' W 118°16'0 0.0
2017-Mar-15 20:33N 33°44' W 118°16'4 3.7
2017-Mar-15 19:32N 33°40' W 118°17'1515.4
2017-Mar-15 18:33N 33°29' W 118°28'6 1.9
2017-Mar-15 15:33N 33°33' W 118°23'1312.8
2017-Mar-15 14:34N 33°44' W 118°16'0 0.0
2017-Mar-15 00:04N 33°44' W 118°16'5 9.5
2017-Mar-14 23:33N 33°40' W 118°19'1515.3
2017-Mar-14 22:33N 33°27' W 118°29'0 0.3
2017-Mar-14 21:25N 33°27' W 118°29'0 0.0
2017-Mar-14 20:33N 33°27' W 118°29'0 0.0
2017-Mar-14 19:33N 33°27' W 118°29'0 0.0
2017-Mar-14 18:31N 33°27' W 118°29'0 0.0
2017-Mar-14 17:32N 33°27' W 118°29'2 1.7
2017-Mar-14 16:33N 33°28' W 118°28'1312.4
2017-Mar-14 15:32N 33°38' W 118°18'7 6.5
2017-Mar-14 14:31N 33°44' W 118°16'0 0.0
2017-Mar-14 00:29N 33°44' W 118°16'9 9.9
2017-Mar-13 23:33N 33°35' W 118°15'14 2.2
2017-Mar-13 17:16N 33°27' W 118°29'912.1
2017-Mar-13 16:33N 33°27' W 118°19'1110.8
2017-Mar-13 15:33N 33°38' W 118°16'6 0.3
2017-Mar-12 19:33N 33°44' W 118°16'1414.1
2017-Mar-12 18:33N 33°31' W 118°24'6 5.2
2017-Mar-12 17:24N 33°27' W 118°29'1315.4
2017-Mar-12 16:33N 33°37' W 118°20'8 7.1
2017-Mar-12 15:29N 33°44' W 118°16'0 0.0
2017-Mar-10 23:21N 33°44' W 118°16'1214.7
2017-Mar-10 22:33N 33°34' W 118°22'9 1.6
2017-Mar-10 17:16N 33°27' W 118°29'1318.8
2017-Mar-10 16:34N 33°38' W 118°21'7 7.0
2017-Mar-10 15:33N 33°44' W 118°16'1 0.1
2017-Mar-10 00:33N 33°43' W 118°16'1919.4
2017-Mar-09 23:33N 33°27' W 118°29'5 0.7
2017-Mar-09 16:34N 33°31' W 118°25'1515.2
2017-Mar-09 15:33N 33°44' W 118°16'3 0.2
2017-Mar-09 00:33N 33°41' W 118°16'16 2.0
2017-Mar-08 16:34N 33°29' W 118°27'1817.7
2017-Mar-08 15:33N 33°44' W 118°16'  

Dump ship's entire track history